Time;durP1;ratioP1;P1;durP2;ratioP2;P2;SDS_P1;SDS_P2;PMS_P1;PMS_P2;Temp;Humidity;BMP_temperature;BMP_pressure;BME280_temperature;BME280_humidity;BME280_pressure;Samples;Min_cycle;Max_cycle;Signal;HPM_P1;HPM_P2
2023/01/08 00:01:34;;;;;;;8.18;6.22;;;9.60;99.90;;;;;;5009313;28;20116;-67
2023/01/08 00:03:59;;;;;;;6.40;5.75;;;9.60;99.90;;;;;;5003260;28;20168;-67
2023/01/08 00:06:25;;;;;;;7.50;6.15;;;9.60;99.90;;;;;;5009326;28;20521;-66
2023/01/08 00:08:51;;;;;;;8.23;5.70;;;9.60;99.90;;;;;;4985167;28;20046;-67
2023/01/08 00:11:16;;;;;;;7.05;6.35;;;9.70;99.90;;;;;;5010178;28;20041;-66
2023/01/08 00:13:42;;;;;;;6.30;5.70;;;9.70;99.90;;;;;;5009890;28;20064;-67
2023/01/08 00:16:12;;;;;;;6.97;5.85;;;9.70;99.90;;;;;;5006133;28;20120;-67
2023/01/08 00:18:37;;;;;;;6.88;5.43;;;9.70;99.90;;;;;;4999857;28;20058;-66
2023/01/08 00:21:04;;;;;;;6.25;5.63;;;9.70;99.90;;;;;;5008873;28;20843;-66
2023/01/08 00:23:30;;;;;;;7.18;5.85;;;9.70;99.90;;;;;;5004981;28;20573;-66
2023/01/08 00:26:02;;;;;;;8.20;4.95;;;9.70;99.90;;;;;;5008173;28;20082;-66
2023/01/08 00:28:28;;;;;;;11.65;6.25;;;9.70;99.90;;;;;;5009811;28;20164;-66
2023/01/08 00:30:54;;;;;;;6.65;5.25;;;9.70;99.90;;;;;;5009529;28;20894;-67
2023/01/08 00:33:19;;;;;;;6.78;6.07;;;9.80;99.90;;;;;;5009037;28;20038;-67
2023/01/08 00:35:45;;;;;;;6.45;5.43;;;9.70;99.90;;;;;;5009308;28;20072;-66
2023/01/08 00:38:11;;;;;;;7.05;6.35;;;9.70;99.90;;;;;;5008863;28;20064;-67
2023/01/08 00:40:39;;;;;;;7.05;6.28;;;9.70;99.90;;;;;;5009848;28;20047;-67
2023/01/08 00:43:05;;;;;;;5.38;4.88;;;9.70;99.90;;;;;;4991699;28;20064;-67
2023/01/08 00:45:30;;;;;;;8.05;5.90;;;9.70;99.90;;;;;;5004976;28;20430;-66
2023/01/08 00:47:56;;;;;;;6.28;5.65;;;9.70;99.90;;;;;;5008496;28;20084;-67
2023/01/08 00:50:23;;;;;;;6.35;5.60;;;9.70;99.90;;;;;;5008799;28;20037;-67
2023/01/08 00:52:49;;;;;;;7.80;5.55;;;9.60;99.90;;;;;;4992410;28;20045;-67
2023/01/08 00:55:15;;;;;;;6.72;5.93;;;9.70;99.90;;;;;;5004194;28;20866;-66
2023/01/08 00:57:41;;;;;;;8.70;6.00;;;9.70;99.90;;;;;;5002854;28;20041;-66
2023/01/08 01:00:11;;;;;;;5.57;5.10;;;9.70;99.90;;;;;;4990628;28;20053;-66
2023/01/08 01:02:37;;;;;;;6.43;4.90;;;9.70;99.90;;;;;;4974785;28;20051;-67
2023/01/08 01:05:03;;;;;;;6.47;5.57;;;9.70;99.90;;;;;;5008646;28;20042;-67
2023/01/08 01:07:29;;;;;;;5.95;5.35;;;9.70;99.90;;;;;;5009269;28;20574;-67
2023/01/08 01:09:55;;;;;;;11.93;5.85;;;9.70;99.90;;;;;;5008776;28;20056;-67
2023/01/08 01:12:20;;;;;;;6.50;5.90;;;9.70;99.90;;;;;;5003414;28;20581;-67
2023/01/08 01:14:46;;;;;;;6.60;4.97;;;9.70;99.90;;;;;;4990529;28;20077;-67
2023/01/08 01:17:12;;;;;;;6.32;5.72;;;9.70;99.90;;;;;;5008091;28;20026;-67
2023/01/08 01:19:40;;;;;;;8.07;5.50;;;9.70;99.90;;;;;;5007776;28;20061;-67
2023/01/08 01:22:05;;;;;;;7.25;6.43;;;9.70;99.90;;;;;;5008197;28;20113;-67
2023/01/08 01:24:31;;;;;;;9.88;5.53;;;9.70;99.90;;;;;;5008809;28;20116;-67
2023/01/08 01:26:57;;;;;;;5.97;5.40;;;9.70;99.90;;;;;;5007974;28;20104;-67
2023/01/08 01:29:23;;;;;;;6.65;6.05;;;9.70;99.90;;;;;;5007696;28;20137;-67
2023/01/08 01:31:49;;;;;;;6.53;5.68;;;9.70;99.90;;;;;;5007241;28;20046;-67
2023/01/08 01:34:14;;;;;;;8.10;6.15;;;9.70;99.90;;;;;;5007307;28;20633;-67
2023/01/08 01:36:40;;;;;;;5.60;4.85;;;9.70;99.90;;;;;;5007927;28;20053;-67
2023/01/08 01:39:06;;;;;;;8.45;6.40;;;9.60;99.90;;;;;;5008012;28;20052;-67
2023/01/08 01:41:37;;;;;;;6.80;5.50;;;9.60;99.90;;;;;;5007225;28;20079;-67
2023/01/08 01:44:32;;;;;;;5.32;4.72;;;9.60;99.90;;;;;;5004856;28;20040;-67
2023/01/08 01:47:00;;;;;;;5.70;4.35;;;9.60;99.90;;;;;;5005006;28;20041;-67
2023/01/08 01:49:26;;;;;;;7.13;4.30;;;9.50;99.90;;;;;;5004894;28;20034;-67
2023/01/08 01:51:59;;;;;;;5.68;3.78;;;9.50;99.90;;;;;;5003380;28;20045;-67
2023/01/08 01:54:25;;;;;;;13.02;3.65;;;9.50;99.90;;;;;;5000497;28;20042;-66
2023/01/08 01:56:51;;;;;;;7.05;3.03;;;9.40;99.90;;;;;;4989015;28;20045;-67
2023/01/08 01:59:17;;;;;;;6.55;2.70;;;9.40;99.90;;;;;;5000310;28;20399;-67
2023/01/08 02:01:42;;;;;;;5.43;2.97;;;9.30;99.90;;;;;;5007606;28;20041;-66
2023/01/08 02:04:10;;;;;;;8.88;3.08;;;9.30;99.90;;;;;;5007828;28;20046;-67
2023/01/08 02:06:59;;;;;;;6.85;2.25;;;9.20;99.90;;;;;;5006459;28;20053;-66
2023/01/08 02:09:38;;;;;;;5.97;2.15;;;9.20;99.90;;;;;;5001246;28;20077;-67
2023/01/08 02:12:29;;;;;;;6.75;2.92;;;9.10;99.90;;;;;;4990161;28;20038;-67
2023/01/08 02:15:40;;;;;;;3.15;1.85;;;9.10;99.90;;;;;;5004438;28;20053;-66
2023/01/08 02:18:07;;;;;;;5.90;2.05;;;9.00;99.90;;;;;;4976208;28;20059;-67
2023/01/08 02:20:44;;;;;;;12.13;2.00;;;8.90;99.90;;;;;;5004707;28;20491;-67
2023/01/08 02:23:31;;;;;;;8.60;2.38;;;8.90;99.90;;;;;;5006901;28;20053;-67
2023/01/08 02:26:03;;;;;;;4.55;2.70;;;8.90;99.90;;;;;;5005739;28;20072;-67
2023/01/08 02:28:32;;;;;;;8.30;2.70;;;8.80;99.90;;;;;;4997751;28;20507;-67
2023/01/08 02:30:59;;;;;;;10.32;2.80;;;8.80;99.90;;;;;;5005193;28;20881;-67
2023/01/08 02:33:28;;;;;;;19.98;3.25;;;8.70;99.90;;;;;;5006101;28;20042;-67
2023/01/08 02:36:22;;;;;;;10.88;2.58;;;8.70;99.90;;;;;;5006878;28;20194;-67
2023/01/08 02:39:06;;;;;;;23.92;4.43;;;8.70;99.90;;;;;;5007599;28;20143;-67
2023/01/08 02:41:43;;;;;;;21.05;2.80;;;8.70;99.90;;;;;;5003476;28;20054;-67
2023/01/08 02:44:16;;;;;;;8.65;2.78;;;8.60;99.90;;;;;;5007356;28;20100;-67
2023/01/08 02:46:42;;;;;;;10.23;3.30;;;8.60;99.90;;;;;;4998840;28;20050;-67
2023/01/08 02:49:11;;;;;;;19.85;4.10;;;8.60;99.90;;;;;;5007323;28;20044;-67
2023/01/08 02:51:43;;;;;;;8.27;3.00;;;8.50;99.90;;;;;;5006237;28;20049;-67
2023/01/08 02:54:15;;;;;;;12.00;3.03;;;8.50;99.90;;;;;;4993670;28;20508;-67
2023/01/08 02:56:46;;;;;;;9.88;4.22;;;8.50;99.90;;;;;;5007767;28;20058;-67
2023/01/08 02:59:15;;;;;;;20.02;3.22;;;8.50;99.90;;;;;;5005771;28;20495;-67
2023/01/08 03:01:42;;;;;;;13.32;4.15;;;8.40;99.90;;;;;;5007022;28;20623;-67
2023/01/08 03:04:16;;;;;;;16.27;4.22;;;8.40;99.90;;;;;;5007040;28;20046;-67
2023/01/08 03:06:42;;;;;;;9.15;3.03;;;8.40;99.90;;;;;;4994448;28;20581;-67
2023/01/08 03:09:08;;;;;;;7.85;2.40;;;8.40;99.90;;;;;;5006414;28;20079;-67
2023/01/08 03:11:44;;;;;;;6.13;3.00;;;8.40;99.90;;;;;;5007756;28;20038;-67
2023/01/08 03:14:17;;;;;;;9.45;3.38;;;8.40;99.90;;;;;;5007642;28;20053;-67
2023/01/08 03:16:50;;;;;;;5.80;2.47;;;8.40;99.90;;;;;;5005761;28;20041;-67
2023/01/08 03:19:33;;;;;;;12.00;2.83;;;8.40;99.90;;;;;;5008093;28;20053;-67
2023/01/08 03:22:01;;;;;;;12.93;3.00;;;8.40;99.90;;;;;;5009778;28;20077;-67
2023/01/08 03:24:32;;;;;;;7.53;3.25;;;8.40;99.90;;;;;;5010422;28;20079;-67
2023/01/08 03:27:02;;;;;;;15.68;4.18;;;8.40;99.90;;;;;;5009508;28;20034;-67
2023/01/08 03:29:28;;;;;;;5.82;2.50;;;8.30;99.90;;;;;;4998990;28;20415;-67
2023/01/08 03:32:01;;;;;;;7.55;3.13;;;8.40;99.90;;;;;;5008888;28;20038;-67
2023/01/08 03:34:30;;;;;;;9.85;3.40;;;8.30;99.90;;;;;;4971304;28;20411;-67
2023/01/08 03:36:58;;;;;;;6.38;3.20;;;8.30;99.90;;;;;;5010251;28;20847;-67
2023/01/08 03:39:39;;;;;;;9.60;3.10;;;8.30;99.90;;;;;;5011242;28;20061;-67
2023/01/08 03:42:09;;;;;;;9.75;3.90;;;8.30;99.90;;;;;;5008526;28;20088;-67
2023/01/08 03:44:35;;;;;;;10.48;4.43;;;8.30;99.90;;;;;;5010264;28;20149;-67
2023/01/08 03:47:02;;;;;;;4.88;3.60;;;8.30;99.90;;;;;;5010718;28;20136;-67
2023/01/08 03:49:28;;;;;;;10.13;4.40;;;8.30;99.90;;;;;;4995032;28;20042;-67
2023/01/08 03:51:54;;;;;;;5.38;4.05;;;8.30;99.90;;;;;;5005327;28;20475;-67
2023/01/08 03:54:24;;;;;;;9.77;5.78;;;8.40;99.90;;;;;;5010938;28;20134;-67
2023/01/08 03:56:49;;;;;;;7.75;5.18;;;8.30;99.90;;;;;;5007912;28;20056;-67
2023/01/08 03:59:16;;;;;;;11.25;5.45;;;8.30;99.90;;;;;;5010429;28;20058;-67
2023/01/08 04:01:42;;;;;;;7.57;5.22;;;8.30;99.90;;;;;;5010549;28;20054;-67
2023/01/08 04:04:09;;;;;;;10.48;5.25;;;8.40;99.90;;;;;;5006930;28;20034;-66
2023/01/08 04:06:35;;;;;;;6.55;5.63;;;8.40;99.90;;;;;;5006162;28;20492;-67
2023/01/08 04:09:00;;;;;;;9.32;6.40;;;8.40;99.90;;;;;;5010855;28;20042;-67
2023/01/08 04:11:26;;;;;;;9.50;6.05;;;8.50;99.90;;;;;;4996147;28;20042;-67
2023/01/08 04:13:52;;;;;;;6.90;5.85;;;8.60;99.90;;;;;;5004693;28;20671;-67
2023/01/08 04:16:17;;;;;;;10.70;6.18;;;8.60;99.90;;;;;;5006935;28;20042;-67
2023/01/08 04:18:43;;;;;;;7.70;5.65;;;8.60;99.90;;;;;;5010037;28;20036;-67
2023/01/08 04:21:09;;;;;;;6.55;5.72;;;8.60;99.90;;;;;;5010126;28;20549;-67
2023/01/08 04:23:34;;;;;;;9.63;4.80;;;8.60;99.90;;;;;;5010228;28;20522;-67
2023/01/08 04:26:04;;;;;;;14.30;5.82;;;8.70;99.90;;;;;;5004835;28;20128;-67
2023/01/08 04:28:30;;;;;;;7.82;5.95;;;8.60;99.90;;;;;;5000001;28;20113;-67
2023/01/08 04:30:56;;;;;;;8.90;5.55;;;8.60;99.90;;;;;;4978495;28;20161;-67
2023/01/08 04:33:21;;;;;;;7.72;4.32;;;8.60;99.90;;;;;;5009318;28;20045;-67
2023/01/08 04:35:47;;;;;;;10.60;4.78;;;8.70;99.90;;;;;;5010419;28;20045;-67
2023/01/08 04:38:12;;;;;;;11.88;4.70;;;8.60;99.90;;;;;;5010013;28;20384;-67
2023/01/08 04:40:38;;;;;;;5.57;4.18;;;8.60;99.90;;;;;;4991603;28;20100;-67
2023/01/08 04:43:04;;;;;;;7.28;4.65;;;8.60;99.90;;;;;;5009124;28;20034;-67
2023/01/08 04:45:30;;;;;;;7.20;4.75;;;8.60;99.90;;;;;;5003088;28;20042;-67
2023/01/08 04:47:56;;;;;;;8.45;5.10;;;8.60;99.90;;;;;;5004934;28;20100;-67
2023/01/08 04:50:22;;;;;;;4.68;3.47;;;8.60;99.90;;;;;;5001507;28;20047;-67
2023/01/08 04:52:48;;;;;;;4.50;4.00;;;8.60;99.90;;;;;;5009839;28;20050;-67
2023/01/08 04:55:14;;;;;;;7.60;4.57;;;8.60;99.90;;;;;;4995763;28;20056;-67
2023/01/08 04:57:40;;;;;;;4.53;3.83;;;8.60;99.90;;;;;;4996261;28;20053;-67
2023/01/08 05:00:06;;;;;;;6.38;4.15;;;8.60;99.90;;;;;;5008830;28;20050;-67
2023/01/08 05:02:32;;;;;;;6.57;3.92;;;8.50;99.90;;;;;;5009205;28;20557;-67
2023/01/08 05:04:59;;;;;;;5.22;3.80;;;8.50;99.90;;;;;;5006891;28;20034;-67
2023/01/08 05:07:25;;;;;;;4.75;4.20;;;8.50;99.90;;;;;;5009613;28;20097;-67
2023/01/08 05:09:51;;;;;;;6.13;4.13;;;8.50;99.90;;;;;;5004427;28;20565;-67
2023/01/08 05:12:16;;;;;;;6.20;4.35;;;8.50;99.90;;;;;;5009205;28;20685;-67
2023/01/08 05:14:42;;;;;;;4.35;3.95;;;8.50;99.90;;;;;;5009217;28;20691;-67
2023/01/08 05:17:08;;;;;;;7.20;4.25;;;8.50;99.90;;;;;;5008893;28;20048;-67
2023/01/08 05:19:33;;;;;;;8.32;4.47;;;8.50;99.90;;;;;;4991788;28;20037;-67
2023/01/08 05:21:59;;;;;;;5.57;3.75;;;8.50;99.90;;;;;;5002798;28;20120;-67
2023/01/08 05:24:24;;;;;;;6.68;3.88;;;8.50;99.90;;;;;;4999479;28;20097;-67
2023/01/08 05:26:50;;;;;;;5.75;3.97;;;8.50;99.90;;;;;;4991251;28;20041;-67
2023/01/08 05:29:16;;;;;;;6.68;3.97;;;8.50;99.90;;;;;;5008452;28;20651;-67
2023/01/08 05:31:42;;;;;;;9.43;4.07;;;8.50;99.90;;;;;;5008621;28;20070;-67
2023/01/08 05:34:07;;;;;;;15.68;4.45;;;8.50;99.90;;;;;;5008325;28;20052;-67
2023/01/08 05:36:33;;;;;;;5.53;4.75;;;8.50;99.90;;;;;;5007914;28;20049;-67
2023/01/08 05:38:59;;;;;;;9.27;5.28;;;8.50;99.90;;;;;;5006671;28;20098;-67
2023/01/08 05:41:25;;;;;;;6.30;5.47;;;8.50;99.90;;;;;;5008324;28;20053;-67
2023/01/08 05:43:51;;;;;;;6.28;4.85;;;8.50;99.90;;;;;;5004329;28;20408;-67
2023/01/08 05:46:18;;;;;;;7.65;4.90;;;8.50;99.90;;;;;;5004463;28;20046;-67
2023/01/08 05:48:43;;;;;;;6.25;4.60;;;8.50;99.90;;;;;;5007551;28;20176;-67
2023/01/08 05:51:09;;;;;;;5.50;4.90;;;8.40;99.90;;;;;;5008864;28;20117;-67
2023/01/08 05:53:35;;;;;;;8.25;5.55;;;8.40;99.90;;;;;;5008283;28;20633;-67
2023/01/08 05:56:03;;;;;;;8.15;5.35;;;8.40;99.90;;;;;;5005708;28;20466;-67
2023/01/08 05:58:29;;;;;;;8.55;6.32;;;8.40;99.90;;;;;;5007617;28;20131;-67
2023/01/08 06:01:00;;;;;;;11.05;5.78;;;8.40;99.90;;;;;;5008094;28;20601;-67
2023/01/08 06:03:25;;;;;;;15.60;6.72;;;8.40;99.90;;;;;;5003195;28;20483;-67
2023/01/08 06:05:51;;;;;;;6.18;5.03;;;8.40;99.90;;;;;;4977848;28;20038;-67
2023/01/08 06:08:16;;;;;;;8.70;5.18;;;8.40;99.90;;;;;;4990927;28;20049;-67
2023/01/08 06:10:43;;;;;;;18.42;5.72;;;8.40;99.90;;;;;;5007856;28;20057;-67
2023/01/08 06:13:09;;;;;;;7.82;4.95;;;8.30;99.90;;;;;;5007653;28;20436;-67
2023/01/08 06:15:38;;;;;;;4.85;4.25;;;8.30;99.90;;;;;;4990266;28;20132;-67
2023/01/08 06:18:04;;;;;;;7.68;4.50;;;8.30;99.90;;;;;;5008307;28;20034;-67
2023/01/08 06:20:30;;;;;;;8.90;4.07;;;8.30;99.90;;;;;;5007862;28;20095;-67
2023/01/08 06:22:55;;;;;;;12.73;4.05;;;8.30;99.90;;;;;;5007465;28;20050;-68
2023/01/08 06:25:21;;;;;;;6.88;4.75;;;8.20;99.90;;;;;;5007768;28;20049;-67
2023/01/08 06:27:53;;;;;;;8.23;3.30;;;8.20;99.90;;;;;;5003576;28;20038;-67
2023/01/08 06:30:18;;;;;;;4.47;3.55;;;8.20;99.90;;;;;;4998251;28;20069;-67
2023/01/08 06:32:44;;;;;;;9.15;4.10;;;8.20;99.90;;;;;;4990793;28;20745;-68
2023/01/08 06:35:10;;;;;;;8.88;3.38;;;8.20;99.90;;;;;;5006755;28;20048;-67
2023/01/08 06:37:36;;;;;;;11.65;3.58;;;8.20;99.90;;;;;;4997794;28;20050;-67
2023/01/08 06:40:01;;;;;;;7.82;2.72;;;8.20;99.90;;;;;;5004984;28;20046;-68
2023/01/08 06:42:27;;;;;;;9.02;3.40;;;8.10;99.90;;;;;;5008079;28;20041;-67
2023/01/08 06:44:53;;;;;;;11.75;3.78;;;8.10;99.90;;;;;;4998337;28;20038;-67
2023/01/08 06:47:18;;;;;;;10.07;2.80;;;8.10;99.90;;;;;;5000394;28;20045;-67
2023/01/08 06:49:44;;;;;;;7.55;3.67;;;8.10;99.90;;;;;;5007249;28;20369;-67
2023/01/08 06:52:10;;;;;;;5.95;3.58;;;8.10;99.90;;;;;;5007664;28;20046;-67
2023/01/08 06:54:35;;;;;;;6.07;3.38;;;8.00;99.90;;;;;;5010303;28;20815;-67
2023/01/08 06:57:01;;;;;;;7.70;2.83;;;8.10;99.90;;;;;;5011586;28;20038;-67
2023/01/08 06:59:27;;;;;;;6.05;2.95;;;8.10;99.90;;;;;;5011783;28;20129;-67
2023/01/08 07:01:53;;;;;;;6.18;2.83;;;8.10;99.90;;;;;;5009184;28;20046;-67
2023/01/08 07:04:18;;;;;;;5.18;3.20;;;8.00;99.90;;;;;;5011570;28;20046;-67
2023/01/08 07:06:45;;;;;;;10.20;2.63;;;8.00;99.90;;;;;;5011308;28;20053;-67
2023/01/08 07:09:12;;;;;;;5.85;3.08;;;8.00;99.90;;;;;;4978290;28;20077;-67
2023/01/08 07:11:38;;;;;;;6.47;3.33;;;8.00;99.90;;;;;;5010730;28;20037;-67
2023/01/08 07:14:04;;;;;;;5.00;2.50;;;8.00;99.90;;;;;;5011566;28;20411;-67
2023/01/08 07:16:29;;;;;;;8.32;3.25;;;8.00;99.90;;;;;;5011255;28;20108;-67
2023/01/08 07:18:55;;;;;;;12.18;2.97;;;8.00;99.90;;;;;;5010163;28;20095;-67
2023/01/08 07:21:21;;;;;;;5.55;3.33;;;8.00;99.90;;;;;;4999671;28;20130;-67
2023/01/08 07:23:49;;;;;;;2.85;2.35;;;7.90;99.90;;;;;;5008476;28;20072;-67
2023/01/08 07:26:16;;;;;;;5.55;2.72;;;8.00;99.90;;;;;;5011311;28;20057;-67
2023/01/08 07:28:42;;;;;;;7.15;2.63;;;8.00;99.90;;;;;;5010991;28;20045;-67
2023/01/08 07:31:08;;;;;;;6.93;3.20;;;8.00;99.90;;;;;;5011470;28;20076;-67
2023/01/08 07:33:34;;;;;;;9.00;3.05;;;8.00;99.90;;;;;;5009519;28;20038;-67
2023/01/08 07:36:00;;;;;;;6.07;2.75;;;7.90;99.90;;;;;;5008510;28;20053;-67
2023/01/08 07:38:26;;;;;;;7.82;3.55;;;7.90;99.90;;;;;;5011401;28;20072;-67
2023/01/08 07:40:52;;;;;;;4.43;2.80;;;8.00;99.90;;;;;;5011238;28;20042;-67
2023/01/08 07:43:18;;;;;;;10.45;3.92;;;7.90;99.90;;;;;;5011128;28;20052;-67
2023/01/08 07:45:43;;;;;;;15.85;3.65;;;7.90;99.90;;;;;;5008562;28;20044;-67
2023/01/08 07:48:14;;;;;;;12.60;4.18;;;7.90;99.90;;;;;;5010990;28;20447;-67
2023/01/08 07:50:41;;;;;;;4.22;2.67;;;7.90;99.90;;;;;;5009487;28;20037;-67
2023/01/08 07:53:06;;;;;;;6.82;3.30;;;7.90;99.90;;;;;;5006920;28;20049;-68
2023/01/08 07:55:32;;;;;;;9.50;4.20;;;7.90;99.90;;;;;;5010497;28;20513;-68
2023/01/08 07:57:58;;;;;;;9.13;3.83;;;7.90;99.90;;;;;;5006941;28;20038;-68
2023/01/08 08:00:24;;;;;;;10.45;4.45;;;7.90;99.90;;;;;;4999030;28;20046;-68
2023/01/08 08:02:50;;;;;;;14.20;5.63;;;7.90;99.90;;;;;;4989333;28;20042;-67
2023/01/08 08:05:17;;;;;;;11.65;5.43;;;7.90;99.90;;;;;;5010519;28;20050;-68
2023/01/08 08:07:43;;;;;;;9.77;5.30;;;7.90;99.90;;;;;;5008677;28;20050;-68
2023/01/08 08:10:10;;;;;;;14.65;5.20;;;7.80;99.90;;;;;;5000039;28;20520;-68
2023/01/08 08:12:36;;;;;;;13.10;4.43;;;7.80;99.90;;;;;;4993557;28;20457;-68
2023/01/08 08:15:02;;;;;;;9.13;4.90;;;7.80;99.90;;;;;;5010079;28;20048;-67
2023/01/08 08:17:28;;;;;;;6.07;3.97;;;7.70;99.90;;;;;;5007828;28;20061;-68
2023/01/08 08:19:53;;;;;;;7.05;4.13;;;7.70;99.90;;;;;;5004868;28;20423;-68
2023/01/08 08:22:19;;;;;;;9.13;4.88;;;7.70;99.90;;;;;;5006894;28;20142;-68
2023/01/08 08:24:45;;;;;;;7.43;3.90;;;7.70;99.90;;;;;;5001589;28;20574;-68
2023/01/08 08:27:10;;;;;;;11.10;3.85;;;7.60;99.90;;;;;;5004111;28;20073;-67
2023/01/08 08:29:36;;;;;;;6.15;3.50;;;7.60;99.90;;;;;;5010006;28;20046;-67
2023/01/08 08:32:02;;;;;;;5.80;3.67;;;7.60;99.90;;;;;;5009102;28;20065;-68
2023/01/08 08:34:28;;;;;;;9.80;4.28;;;7.50;99.90;;;;;;5005748;28;20042;-67
2023/01/08 08:36:53;;;;;;;12.52;3.63;;;7.60;99.90;;;;;;5004015;28;20104;-67
2023/01/08 08:39:19;;;;;;;9.23;3.70;;;7.50;99.90;;;;;;5009779;28;20060;-68
2023/01/08 08:41:45;;;;;;;11.27;4.10;;;7.50;99.90;;;;;;5008571;28;20462;-67
2023/01/08 08:44:10;;;;;;;7.57;3.50;;;7.50;99.90;;;;;;5007924;28;20079;-68
2023/01/08 08:46:36;;;;;;;6.15;3.08;;;7.50;99.90;;;;;;4990193;28;20095;-68
2023/01/08 08:49:01;;;;;;;9.95;3.55;;;7.50;99.90;;;;;;5009380;28;20124;-67
2023/01/08 08:51:27;;;;;;;7.60;4.05;;;7.50;99.90;;;;;;5008682;28;20038;-67
2023/01/08 08:53:53;;;;;;;5.28;3.13;;;7.50;99.90;;;;;;5008750;28;20077;-68
2023/01/08 08:56:18;;;;;;;7.32;3.28;;;7.50;99.90;;;;;;5009289;28;20076;-67
2023/01/08 08:58:44;;;;;;;9.48;3.47;;;7.50;99.90;;;;;;5008779;28;20081;-67
2023/01/08 09:01:11;;;;;;;8.10;3.38;;;7.50;99.90;;;;;;5008035;28;20077;-67
2023/01/08 09:03:37;;;;;;;6.80;2.72;;;7.50;99.90;;;;;;5004356;28;20141;-67
2023/01/08 09:06:03;;;;;;;11.07;3.72;;;7.50;99.90;;;;;;5005269;28;20044;-67
2023/01/08 09:08:29;;;;;;;7.13;3.55;;;7.50;99.90;;;;;;5009370;28;20116;-67
2023/01/08 09:10:55;;;;;;;4.45;3.35;;;7.50;99.90;;;;;;5008745;28;20116;-68
2023/01/08 09:13:20;;;;;;;8.75;3.53;;;7.60;99.90;;;;;;5007976;28;20676;-67
2023/01/08 09:15:46;;;;;;;8.80;4.60;;;7.60;99.90;;;;;;4991251;28;20058;-67
2023/01/08 09:18:12;;;;;;;5.80;3.05;;;7.60;99.90;;;;;;5007539;28;20481;-67
2023/01/08 09:20:38;;;;;;;5.53;3.03;;;7.60;99.90;;;;;;5006085;28;20045;-67
2023/01/08 09:23:03;;;;;;;6.43;2.67;;;7.60;99.90;;;;;;5008041;28;20056;-67
2023/01/08 09:25:30;;;;;;;5.60;2.70;;;7.60;99.90;;;;;;5005290;28;20088;-67
2023/01/08 09:28:01;;;;;;;7.05;2.80;;;7.60;99.90;;;;;;5008995;28;20054;-68
2023/01/08 09:30:27;;;;;;;12.27;3.28;;;7.70;99.90;;;;;;5005760;28;20089;-68
2023/01/08 09:32:56;;;;;;;10.23;3.58;;;7.60;99.90;;;;;;5008042;28;20652;-68
2023/01/08 09:35:22;;;;;;;9.00;3.72;;;7.70;99.90;;;;;;5008138;28;20046;-68
2023/01/08 09:37:51;;;;;;;4.35;3.35;;;7.70;99.90;;;;;;5006362;28;20048;-68
2023/01/08 09:40:18;;;;;;;6.28;3.53;;;7.70;99.90;;;;;;5008410;28;20053;-68
2023/01/08 09:42:54;;;;;;;6.65;3.08;;;7.70;99.90;;;;;;5006402;28;20411;-69
2023/01/08 09:45:34;;;;;;;8.85;3.45;;;7.70;99.90;;;;;;5008032;28;20384;-69
2023/01/08 09:48:04;;;;;;;6.97;3.40;;;7.80;99.90;;;;;;4990442;28;20042;-68
2023/01/08 09:50:32;;;;;;;6.50;3.45;;;7.80;99.90;;;;;;5004961;28;20069;-67
2023/01/08 09:52:59;;;;;;;11.55;3.28;;;7.80;99.90;;;;;;5005905;28;20034;-68
2023/01/08 09:55:28;;;;;;;10.02;2.90;;;7.90;99.90;;;;;;5007765;28;20053;-68
2023/01/08 09:57:54;;;;;;;8.57;3.72;;;7.90;99.90;;;;;;5007995;28;20641;-68
2023/01/08 10:00:32;;;;;;;9.48;3.58;;;7.90;99.90;;;;;;5007920;28;20071;-68
2023/01/08 10:02:58;;;;;;;;;;;8.00;99.90;;;;;;5008585;28;20042;-68
2023/01/08 10:05:25;;;;;;;11.65;4.95;;;8.00;99.90;;;;;;5008456;28;19921;-68
2023/01/08 10:07:51;;;;;;;6.00;4.37;;;8.00;99.90;;;;;;5008623;28;20181;-68
2023/01/08 10:10:26;;;;;;;11.10;3.40;;;8.10;99.90;;;;;;5007044;28;20797;-68
2023/01/08 10:12:53;;;;;;;11.75;3.97;;;8.10;99.90;;;;;;5005261;28;20077;-67
2023/01/08 10:15:20;;;;;;;9.27;3.90;;;8.20;99.90;;;;;;4966111;28;20046;-67
2023/01/08 10:17:53;;;;;;;15.98;4.47;;;8.30;99.90;;;;;;5000042;28;20066;-68
2023/01/08 10:20:22;;;;;;;6.40;4.25;;;8.30;99.90;;;;;;5005385;28;20076;-68
2023/01/08 10:22:48;;;;;;;;;;;8.40;99.90;;;;;;5009193;28;20462;-68
2023/01/08 10:25:17;;;;;;;11.60;3.85;;;8.40;99.90;;;;;;5008944;28;19992;-68
2023/01/08 10:27:53;;;;;;;6.93;2.83;;;8.50;99.90;;;;;;5008233;28;20045;-68
2023/01/08 10:30:22;;;;;;;13.10;3.88;;;8.50;99.90;;;;;;5008344;28;20038;-68
2023/01/08 10:32:52;;;;;;;13.90;3.83;;;8.60;99.90;;;;;;5008308;28;20045;-68
2023/01/08 10:35:20;;;;;;;10.68;4.57;;;8.70;99.90;;;;;;4990918;28;20518;-68
2023/01/08 10:37:49;;;;;;;;;;;8.70;99.90;;;;;;5008870;28;20050;-68
2023/01/08 10:40:17;;;;;;;;;;;8.70;99.90;;;;;;5004509;28;19921;-68
2023/01/08 10:42:43;;;;;;;;;;;8.70;99.90;;;;;;5009264;28;19967;-68
2023/01/08 10:45:27;;;;;;;10.98;3.30;;;8.80;99.90;;;;;;5004493;28;19965;-68
2023/01/08 10:47:59;;;;;;;11.85;3.40;;;8.90;99.90;;;;;;5008142;28;20049;-68
2023/01/08 10:50:30;;;;;;;10.70;4.18;;;8.90;99.90;;;;;;5004431;28;20050;-68
2023/01/08 10:52:59;;;;;;;11.25;3.13;;;8.90;99.90;;;;;;4998042;28;20128;-68
2023/01/08 10:55:36;;;;;;;14.30;3.45;;;9.00;99.90;;;;;;5007650;28;20194;-68
2023/01/08 10:58:08;;;;;;;8.77;3.67;;;9.00;99.90;;;;;;5008708;28;20045;-69
2023/01/08 11:00:35;;;;;;;17.10;3.08;;;9.10;99.90;;;;;;5008062;28;20045;-68
2023/01/08 11:03:04;;;;;;;7.00;3.83;;;9.20;99.90;;;;;;4979244;28;20764;-68
2023/01/08 11:05:36;;;;;;;18.48;4.72;;;9.10;99.90;;;;;;5012690;28;20042;-68
2023/01/08 11:08:05;;;;;;;10.02;4.53;;;9.20;99.90;;;;;;4997274;28;20427;-68
2023/01/08 11:10:33;;;;;;;12.35;4.78;;;9.20;99.90;;;;;;5008366;28;20034;-68
2023/01/08 11:13:06;;;;;;;19.83;3.77;;;9.30;99.90;;;;;;5007964;28;20054;-68
2023/01/08 11:15:39;;;;;;;11.20;4.13;;;9.30;99.90;;;;;;5007952;28;20343;-68
2023/01/08 11:18:21;;;;;;;15.77;4.10;;;9.30;99.90;;;;;;5003694;28;20092;-68
2023/01/08 11:20:49;;;;;;;15.40;3.75;;;9.40;99.90;;;;;;5008174;28;20495;-68
2023/01/08 11:23:21;;;;;;;7.03;2.65;;;9.30;99.90;;;;;;5004291;28;20054;-68
2023/01/08 11:26:29;;;;;;;11.43;3.83;;;9.40;99.90;;;;;;5007677;28;20442;-68
2023/01/08 11:29:13;;;;;;;;;;;9.40;99.90;;;;;;4991431;28;20136;-68
2023/01/08 11:31:53;;;;;;;13.50;4.22;;;9.50;99.90;;;;;;5006123;28;19926;-68
2023/01/08 11:34:35;;;;;;;11.23;3.10;;;9.50;99.90;;;;;;5002205;28;20045;-68
2023/01/08 11:37:23;;;;;;;10.05;3.65;;;9.50;99.90;;;;;;5007842;28;20838;-68
2023/01/08 11:39:50;;;;;;;10.27;3.08;;;9.50;99.90;;;;;;5007550;28;20046;-68
2023/01/08 11:42:35;;;;;;;10.65;4.05;;;9.50;99.90;;;;;;5010629;28;20136;-68
2023/01/08 11:45:00;;;;;;;18.83;6.03;;;9.50;99.90;;;;;;5005583;28;20050;-68
2023/01/08 11:47:57;;;;;;;10.68;3.72;;;9.60;99.90;;;;;;5004156;28;20499;-68
2023/01/08 11:50:34;;;;;;;10.52;3.85;;;9.60;99.90;;;;;;5010230;28;20066;-68
2023/01/08 11:53:08;;;;;;;13.52;3.92;;;9.60;99.90;;;;;;5010843;28;20119;-68
2023/01/08 11:55:55;;;;;;;19.45;4.40;;;9.60;99.90;;;;;;5010992;28;20050;-69
2023/01/08 11:58:48;;;;;;;15.10;4.10;;;9.60;99.90;;;;;;5002482;28;20085;-67
2023/01/08 12:01:30;;;;;;;17.50;3.88;;;9.60;99.90;;;;;;5010535;28;20495;-68
2023/01/08 12:04:26;;;;;;;14.13;3.72;;;9.50;99.90;;;;;;5011235;28;20129;-68
2023/01/08 12:07:17;;;;;;;15.48;4.13;;;9.50;99.90;;;;;;5004216;28;20091;-68
2023/01/08 12:09:49;;;;;;;11.20;3.90;;;9.50;99.90;;;;;;5008366;28;20895;-68
2023/01/08 12:12:17;;;;;;;13.43;4.32;;;9.50;99.90;;;;;;5010981;28;20099;-68
2023/01/08 12:15:32;;;;;;;11.00;3.88;;;9.50;99.90;;;;;;5010090;28;20049;-68
2023/01/08 12:18:16;;;;;;;10.18;3.92;;;9.60;99.90;;;;;;5010484;28;20161;-68
2023/01/08 12:20:47;;;;;;;18.42;4.50;;;9.50;99.90;;;;;;4993182;28;20046;-68
2023/01/08 12:23:24;;;;;;;13.25;4.13;;;9.50;99.90;;;;;;4977329;28;20104;-68
2023/01/08 12:26:15;;;;;;;10.40;3.97;;;9.60;99.90;;;;;;5010856;28;20080;-68
2023/01/08 12:29:23;;;;;;;17.27;4.93;;;9.60;99.90;;;;;;5010796;28;20041;-68
2023/01/08 12:32:01;;;;;;;13.05;3.65;;;9.60;99.90;;;;;;4937793;28;20124;-68
2023/01/08 12:34:34;;;;;;;10.55;3.63;;;9.50;99.90;;;;;;5004574;28;20061;-68
2023/01/08 12:37:10;;;;;;;18.77;4.28;;;9.50;99.90;;;;;;5008448;28;20562;-68
2023/01/08 12:39:46;;;;;;;11.60;3.67;;;9.50;99.90;;;;;;5010521;28;20349;-68
2023/01/08 12:42:23;;;;;;;16.08;5.28;;;9.50;99.90;;;;;;5010103;28;20038;-68
2023/01/08 12:44:53;;;;;;;9.85;3.28;;;9.50;99.90;;;;;;4989568;28;20446;-68
2023/01/08 12:47:24;;;;;;;18.77;5.05;;;9.50;99.90;;;;;;5004697;28;20099;-68
2023/01/08 12:50:14;;;;;;;13.30;4.35;;;9.60;99.90;;;;;;5010278;28;20113;-68
2023/01/08 12:53:00;;;;;;;10.25;3.67;;;9.50;99.90;;;;;;5006457;28;20046;-68
2023/01/08 12:55:31;;;;;;;11.27;4.03;;;9.60;99.90;;;;;;5010476;28;20086;-68
2023/01/08 12:58:01;;;;;;;8.13;3.33;;;9.50;99.90;;;;;;4993341;28;20120;-67
2023/01/08 13:00:40;;;;;;;9.65;4.90;;;9.50;99.90;;;;;;5009628;28;20041;-68
2023/01/08 13:03:13;;;;;;;15.60;4.22;;;9.60;99.90;;;;;;5009768;28;20042;-68
2023/01/08 13:05:41;;;;;;;11.10;3.90;;;9.50;99.90;;;;;;5010235;28;20052;-68
2023/01/08 13:08:33;;;;;;;10.13;4.07;;;9.50;99.90;;;;;;4979285;28;20062;-68